sensor_id;sensor_type;location;lat;lon;timestamp;P1;durP1;ratioP1;P2;durP2;ratioP2
22234;SDS011;11286;45.596;5.284;2023-03-23T00:01:05;2.60;;;2.00;;
22234;SDS011;11286;45.596;5.284;2023-03-23T00:03:35;4.50;;;2.53;;
22234;SDS011;11286;45.596;5.284;2023-03-23T00:06:02;2.85;;;2.30;;
22234;SDS011;11286;45.596;5.284;2023-03-23T00:08:30;4.40;;;2.28;;
22234;SDS011;11286;45.596;5.284;2023-03-23T00:10:56;1.92;;;1.70;;
22234;SDS011;11286;45.596;5.284;2023-03-23T00:13:26;2.45;;;1.92;;
22234;SDS011;11286;45.596;5.284;2023-03-23T00:15:52;2.35;;;1.75;;
22234;SDS011;11286;45.596;5.284;2023-03-23T00:18:18;4.03;;;1.92;;
22234;SDS011;11286;45.596;5.284;2023-03-23T00:20:46;2.00;;;1.80;;
22234;SDS011;11286;45.596;5.284;2023-03-23T00:23:14;2.85;;;1.80;;
22234;SDS011;11286;45.596;5.284;2023-03-23T00:25:46;2.67;;;1.80;;
22234;SDS011;11286;45.596;5.284;2023-03-23T00:28:14;2.28;;;1.80;;
22234;SDS011;11286;45.596;5.284;2023-03-23T00:30:41;2.33;;;1.80;;
22234;SDS011;11286;45.596;5.284;2023-03-23T00:33:08;3.05;;;2.00;;
22234;SDS011;11286;45.596;5.284;2023-03-23T00:35:37;2.30;;;1.58;;
22234;SDS011;11286;45.596;5.284;2023-03-23T00:38:03;1.65;;;1.50;;
22234;SDS011;11286;45.596;5.284;2023-03-23T00:40:29;1.80;;;1.70;;
22234;SDS011;11286;45.596;5.284;2023-03-23T00:42:56;1.60;;;1.50;;
22234;SDS011;11286;45.596;5.284;2023-03-23T00:45:21;3.17;;;1.60;;
22234;SDS011;11286;45.596;5.284;2023-03-23T00:47:49;4.32;;;1.90;;
22234;SDS011;11286;45.596;5.284;2023-03-23T00:50:16;2.05;;;1.80;;
22234;SDS011;11286;45.596;5.284;2023-03-23T00:52:43;3.35;;;1.80;;
22234;SDS011;11286;45.596;5.284;2023-03-23T00:55:09;4.18;;;2.03;;
22234;SDS011;11286;45.596;5.284;2023-03-23T00:57:35;3.28;;;1.88;;
22234;SDS011;11286;45.596;5.284;2023-03-23T01:00:01;2.25;;;1.60;;
22234;SDS011;11286;45.596;5.284;2023-03-23T01:02:28;2.33;;;1.70;;
22234;SDS011;11286;45.596;5.284;2023-03-23T01:04:54;4.35;;;1.70;;
22234;SDS011;11286;45.596;5.284;2023-03-23T01:07:20;3.30;;;1.85;;
22234;SDS011;11286;45.596;5.284;2023-03-23T01:09:48;3.75;;;1.73;;
22234;SDS011;11286;45.596;5.284;2023-03-23T01:12:13;2.63;;;1.90;;
22234;SDS011;11286;45.596;5.284;2023-03-23T01:14:40;3.75;;;1.77;;
22234;SDS011;11286;45.596;5.284;2023-03-23T01:17:06;3.22;;;1.70;;
22234;SDS011;11286;45.596;5.284;2023-03-23T01:19:32;2.22;;;1.58;;
22234;SDS011;11286;45.596;5.284;2023-03-23T01:21:58;3.60;;;1.67;;
22234;SDS011;11286;45.596;5.284;2023-03-23T01:24:23;2.97;;;1.52;;
22234;SDS011;11286;45.596;5.284;2023-03-23T01:26:49;1.92;;;1.52;;
22234;SDS011;11286;45.596;5.284;2023-03-23T01:29:15;1.98;;;1.70;;
22234;SDS011;11286;45.596;5.284;2023-03-23T01:31:40;2.65;;;1.88;;
22234;SDS011;11286;45.596;5.284;2023-03-23T01:34:07;2.78;;;1.77;;
22234;SDS011;11286;45.596;5.284;2023-03-23T01:36:35;2.78;;;1.70;;
22234;SDS011;11286;45.596;5.284;2023-03-23T01:39:02;3.00;;;1.70;;
22234;SDS011;11286;45.596;5.284;2023-03-23T01:41:30;2.88;;;1.90;;
22234;SDS011;11286;45.596;5.284;2023-03-23T01:43:58;2.13;;;1.73;;
22234;SDS011;11286;45.596;5.284;2023-03-23T01:46:29;2.65;;;2.00;;
22234;SDS011;11286;45.596;5.284;2023-03-23T01:48:58;3.10;;;1.90;;
22234;SDS011;11286;45.596;5.284;2023-03-23T01:51:31;3.78;;;2.08;;
22234;SDS011;11286;45.596;5.284;2023-03-23T01:54:02;2.58;;;1.70;;
22234;SDS011;11286;45.596;5.284;2023-03-23T01:56:39;3.63;;;1.70;;
22234;SDS011;11286;45.596;5.284;2023-03-23T01:59:10;1.58;;;1.48;;
22234;SDS011;11286;45.596;5.284;2023-03-23T02:01:37;3.08;;;1.42;;
22234;SDS011;11286;45.596;5.284;2023-03-23T02:04:09;3.40;;;1.58;;
22234;SDS011;11286;45.596;5.284;2023-03-23T02:06:38;3.28;;;1.88;;
22234;SDS011;11286;45.596;5.284;2023-03-23T02:09:04;2.03;;;1.58;;
22234;SDS011;11286;45.596;5.284;2023-03-23T02:11:33;1.98;;;1.55;;
22234;SDS011;11286;45.596;5.284;2023-03-23T02:13:59;3.20;;;1.75;;
22234;SDS011;11286;45.596;5.284;2023-03-23T02:16:31;2.38;;;1.70;;
22234;SDS011;11286;45.596;5.284;2023-03-23T02:21:52;3.20;;;2.00;;
22234;SDS011;11286;45.596;5.284;2023-03-23T02:31:11;1.90;;;1.75;;
22234;SDS011;11286;45.596;5.284;2023-03-23T02:33:55;2.13;;;1.77;;
22234;SDS011;11286;45.596;5.284;2023-03-23T02:36:41;3.90;;;1.85;;
22234;SDS011;11286;45.596;5.284;2023-03-23T02:40:15;2.35;;;1.80;;
22234;SDS011;11286;45.596;5.284;2023-03-23T02:42:13;2.97;;;2.05;;
22234;SDS011;11286;45.596;5.284;2023-03-23T02:44:45;2.47;;;1.90;;
22234;SDS011;11286;45.596;5.284;2023-03-23T02:47:19;2.25;;;1.60;;
22234;SDS011;11286;45.596;5.284;2023-03-23T02:49:49;2.38;;;1.65;;
22234;SDS011;11286;45.596;5.284;2023-03-23T02:52:20;4.28;;;1.98;;
22234;SDS011;11286;45.596;5.284;2023-03-23T02:54:49;2.30;;;2.10;;
22234;SDS011;11286;45.596;5.284;2023-03-23T02:57:16;2.90;;;2.10;;
22234;SDS011;11286;45.596;5.284;2023-03-23T02:59:42;2.83;;;2.03;;
22234;SDS011;11286;45.596;5.284;2023-03-23T03:04:40;2.70;;;1.88;;
22234;SDS011;11286;45.596;5.284;2023-03-23T03:07:20;2.60;;;2.20;;
22234;SDS011;11286;45.596;5.284;2023-03-23T03:10:08;2.97;;;2.10;;
22234;SDS011;11286;45.596;5.284;2023-03-23T03:15:36;3.10;;;2.20;;
22234;SDS011;11286;45.596;5.284;2023-03-23T03:18:54;4.03;;;2.08;;
22234;SDS011;11286;45.596;5.284;2023-03-23T03:21:04;2.00;;;1.77;;
22234;SDS011;11286;45.596;5.284;2023-03-23T03:23:33;2.20;;;1.83;;
22234;SDS011;11286;45.596;5.284;2023-03-23T03:26:02;2.10;;;1.90;;
22234;SDS011;11286;45.596;5.284;2023-03-23T03:28:29;2.63;;;2.00;;
22234;SDS011;11286;45.596;5.284;2023-03-23T03:30:57;3.15;;;2.00;;
22234;SDS011;11286;45.596;5.284;2023-03-23T03:33:27;3.33;;;2.38;;
22234;SDS011;11286;45.596;5.284;2023-03-23T03:35:56;4.22;;;2.28;;
22234;SDS011;11286;45.596;5.284;2023-03-23T03:38:25;4.10;;;2.25;;
22234;SDS011;11286;45.596;5.284;2023-03-23T03:40:51;3.47;;;2.20;;
22234;SDS011;11286;45.596;5.284;2023-03-23T03:43:18;2.42;;;2.20;;
22234;SDS011;11286;45.596;5.284;2023-03-23T03:45:43;3.72;;;2.42;;
22234;SDS011;11286;45.596;5.284;2023-03-23T03:48:10;4.43;;;2.50;;
22234;SDS011;11286;45.596;5.284;2023-03-23T03:50:36;3.63;;;2.33;;
22234;SDS011;11286;45.596;5.284;2023-03-23T03:53:02;2.60;;;2.40;;
22234;SDS011;11286;45.596;5.284;2023-03-23T03:55:28;3.38;;;2.30;;
22234;SDS011;11286;45.596;5.284;2023-03-23T03:57:54;3.95;;;2.10;;
22234;SDS011;11286;45.596;5.284;2023-03-23T04:00:20;4.78;;;2.38;;
22234;SDS011;11286;45.596;5.284;2023-03-23T04:02:47;4.00;;;2.30;;
22234;SDS011;11286;45.596;5.284;2023-03-23T04:05:19;2.67;;;2.10;;
22234;SDS011;11286;45.596;5.284;2023-03-23T04:07:46;4.38;;;2.42;;
22234;SDS011;11286;45.596;5.284;2023-03-23T04:10:14;3.75;;;2.20;;
22234;SDS011;11286;45.596;5.284;2023-03-23T04:12:40;2.85;;;2.10;;
22234;SDS011;11286;45.596;5.284;2023-03-23T04:15:06;3.67;;;2.00;;
22234;SDS011;11286;45.596;5.284;2023-03-23T04:17:33;2.40;;;1.92;;
22234;SDS011;11286;45.596;5.284;2023-03-23T04:19:59;3.78;;;2.20;;
22234;SDS011;11286;45.596;5.284;2023-03-23T04:22:25;3.97;;;2.35;;
22234;SDS011;11286;45.596;5.284;2023-03-23T04:24:57;2.40;;;2.20;;
22234;SDS011;11286;45.596;5.284;2023-03-23T04:27:25;1.95;;;1.83;;
22234;SDS011;11286;45.596;5.284;2023-03-23T04:29:53;2.40;;;1.88;;
22234;SDS011;11286;45.596;5.284;2023-03-23T04:32:21;2.85;;;1.98;;
22234;SDS011;11286;45.596;5.284;2023-03-23T04:34:47;2.47;;;1.85;;
22234;SDS011;11286;45.596;5.284;2023-03-23T04:37:13;3.63;;;2.10;;
22234;SDS011;11286;45.596;5.284;2023-03-23T04:39:39;3.13;;;2.20;;
22234;SDS011;11286;45.596;5.284;2023-03-23T04:42:06;2.20;;;1.77;;
22234;SDS011;11286;45.596;5.284;2023-03-23T04:44:32;2.90;;;2.22;;
22234;SDS011;11286;45.596;5.284;2023-03-23T04:47:00;3.53;;;2.40;;
22234;SDS011;11286;45.596;5.284;2023-03-23T04:49:26;3.08;;;2.53;;
22234;SDS011;11286;45.596;5.284;2023-03-23T04:51:52;3.10;;;2.20;;
22234;SDS011;11286;45.596;5.284;2023-03-23T04:54:17;4.47;;;2.47;;
22234;SDS011;11286;45.596;5.284;2023-03-23T04:56:43;3.63;;;2.30;;
22234;SDS011;11286;45.596;5.284;2023-03-23T04:59:09;3.45;;;2.20;;
22234;SDS011;11286;45.596;5.284;2023-03-23T05:01:34;3.88;;;2.05;;
22234;SDS011;11286;45.596;5.284;2023-03-23T05:04:02;3.17;;;2.40;;
22234;SDS011;11286;45.596;5.284;2023-03-23T05:06:28;3.33;;;2.20;;
22234;SDS011;11286;45.596;5.284;2023-03-23T05:08:54;3.38;;;2.42;;
22234;SDS011;11286;45.596;5.284;2023-03-23T05:11:20;3.42;;;2.10;;
22234;SDS011;11286;45.596;5.284;2023-03-23T05:13:46;4.03;;;2.22;;
22234;SDS011;11286;45.596;5.284;2023-03-23T05:16:11;3.85;;;2.30;;
22234;SDS011;11286;45.596;5.284;2023-03-23T05:18:37;3.22;;;2.60;;
22234;SDS011;11286;45.596;5.284;2023-03-23T05:21:03;3.55;;;2.22;;
22234;SDS011;11286;45.596;5.284;2023-03-23T05:23:29;4.65;;;2.40;;
22234;SDS011;11286;45.596;5.284;2023-03-23T05:25:58;4.15;;;2.20;;
22234;SDS011;11286;45.596;5.284;2023-03-23T05:28:27;3.90;;;2.50;;
22234;SDS011;11286;45.596;5.284;2023-03-23T05:30:55;2.83;;;2.53;;
22234;SDS011;11286;45.596;5.284;2023-03-23T05:33:21;3.55;;;2.70;;
22234;SDS011;11286;45.596;5.284;2023-03-23T05:35:47;4.35;;;2.70;;
22234;SDS011;11286;45.596;5.284;2023-03-23T05:38:13;5.97;;;2.60;;
22234;SDS011;11286;45.596;5.284;2023-03-23T05:40:41;3.95;;;2.78;;
22234;SDS011;11286;45.596;5.284;2023-03-23T05:43:07;3.63;;;2.58;;
22234;SDS011;11286;45.596;5.284;2023-03-23T05:45:33;3.05;;;2.67;;
22234;SDS011;11286;45.596;5.284;2023-03-23T05:48:00;6.70;;;2.83;;
22234;SDS011;11286;45.596;5.284;2023-03-23T05:50:26;4.72;;;2.40;;
22234;SDS011;11286;45.596;5.284;2023-03-23T05:52:52;3.55;;;2.47;;
22234;SDS011;11286;45.596;5.284;2023-03-23T05:55:19;2.88;;;2.45;;
22234;SDS011;11286;45.596;5.284;2023-03-23T05:57:44;4.38;;;2.60;;
22234;SDS011;11286;45.596;5.284;2023-03-23T06:00:10;3.53;;;2.90;;
22234;SDS011;11286;45.596;5.284;2023-03-23T06:02:40;4.00;;;2.80;;
22234;SDS011;11286;45.596;5.284;2023-03-23T06:05:08;3.72;;;2.60;;
22234;SDS011;11286;45.596;5.284;2023-03-23T06:07:35;5.15;;;2.65;;
22234;SDS011;11286;45.596;5.284;2023-03-23T06:10:02;5.13;;;3.10;;
22234;SDS011;11286;45.596;5.284;2023-03-23T06:12:32;4.45;;;2.85;;
22234;SDS011;11286;45.596;5.284;2023-03-23T06:14:57;3.35;;;2.65;;
22234;SDS011;11286;45.596;5.284;2023-03-23T06:17:23;4.63;;;2.50;;
22234;SDS011;11286;45.596;5.284;2023-03-23T06:19:49;3.55;;;2.50;;
22234;SDS011;11286;45.596;5.284;2023-03-23T06:22:15;2.97;;;2.47;;
22234;SDS011;11286;45.596;5.284;2023-03-23T06:24:42;4.70;;;2.80;;
22234;SDS011;11286;45.596;5.284;2023-03-23T06:27:09;3.50;;;2.88;;
22234;SDS011;11286;45.596;5.284;2023-03-23T06:29:35;3.60;;;2.75;;
22234;SDS011;11286;45.596;5.284;2023-03-23T06:32:02;4.07;;;2.60;;
22234;SDS011;11286;45.596;5.284;2023-03-23T06:34:30;3.72;;;3.15;;
22234;SDS011;11286;45.596;5.284;2023-03-23T06:36:57;3.55;;;2.78;;
22234;SDS011;11286;45.596;5.284;2023-03-23T06:39:23;3.35;;;2.83;;
22234;SDS011;11286;45.596;5.284;2023-03-23T06:41:49;5.93;;;2.72;;
22234;SDS011;11286;45.596;5.284;2023-03-23T06:44:15;4.60;;;2.50;;
22234;SDS011;11286;45.596;5.284;2023-03-23T06:46:41;3.03;;;2.42;;
22234;SDS011;11286;45.596;5.284;2023-03-23T06:49:07;3.67;;;2.65;;
22234;SDS011;11286;45.596;5.284;2023-03-23T06:51:33;4.18;;;2.53;;
22234;SDS011;11286;45.596;5.284;2023-03-23T06:53:59;4.20;;;2.70;;
22234;SDS011;11286;45.596;5.284;2023-03-23T06:56:25;3.88;;;2.53;;
22234;SDS011;11286;45.596;5.284;2023-03-23T06:58:51;5.82;;;3.10;;
22234;SDS011;11286;45.596;5.284;2023-03-23T07:01:16;4.45;;;2.95;;
22234;SDS011;11286;45.596;5.284;2023-03-23T07:03:42;5.07;;;3.17;;
22234;SDS011;11286;45.596;5.284;2023-03-23T07:06:08;4.20;;;2.90;;
22234;SDS011;11286;45.596;5.284;2023-03-23T07:08:35;5.50;;;2.95;;
22234;SDS011;11286;45.596;5.284;2023-03-23T07:11:01;3.97;;;3.00;;
22234;SDS011;11286;45.596;5.284;2023-03-23T07:13:27;8.80;;;3.05;;
22234;SDS011;11286;45.596;5.284;2023-03-23T07:15:53;3.10;;;2.75;;
22234;SDS011;11286;45.596;5.284;2023-03-23T07:18:19;6.80;;;3.33;;
22234;SDS011;11286;45.596;5.284;2023-03-23T07:20:52;4.05;;;3.10;;
22234;SDS011;11286;45.596;5.284;2023-03-23T07:23:18;4.70;;;3.50;;
22234;SDS011;11286;45.596;5.284;2023-03-23T07:25:44;4.88;;;3.28;;
22234;SDS011;11286;45.596;5.284;2023-03-23T07:28:11;5.18;;;3.40;;
22234;SDS011;11286;45.596;5.284;2023-03-23T07:30:37;4.90;;;3.35;;
22234;SDS011;11286;45.596;5.284;2023-03-23T07:33:06;6.18;;;3.30;;
22234;SDS011;11286;45.596;5.284;2023-03-23T07:35:33;7.00;;;3.42;;
22234;SDS011;11286;45.596;5.284;2023-03-23T07:37:59;6.72;;;3.63;;
22234;SDS011;11286;45.596;5.284;2023-03-23T07:40:25;3.78;;;3.35;;
22234;SDS011;11286;45.596;5.284;2023-03-23T07:42:52;4.05;;;3.58;;
22234;SDS011;11286;45.596;5.284;2023-03-23T07:45:20;7.22;;;4.05;;
22234;SDS011;11286;45.596;5.284;2023-03-23T07:47:46;6.53;;;3.70;;
22234;SDS011;11286;45.596;5.284;2023-03-23T07:50:12;4.43;;;3.28;;
22234;SDS011;11286;45.596;5.284;2023-03-23T07:52:38;5.68;;;3.40;;
22234;SDS011;11286;45.596;5.284;2023-03-23T07:55:06;7.00;;;3.85;;
22234;SDS011;11286;45.596;5.284;2023-03-23T07:57:33;4.20;;;3.58;;
22234;SDS011;11286;45.596;5.284;2023-03-23T07:59:59;5.60;;;3.97;;
22234;SDS011;11286;45.596;5.284;2023-03-23T08:02:25;4.97;;;3.70;;
22234;SDS011;11286;45.596;5.284;2023-03-23T08:04:56;5.20;;;3.90;;
22234;SDS011;11286;45.596;5.284;2023-03-23T08:07:25;3.70;;;3.40;;
22234;SDS011;11286;45.596;5.284;2023-03-23T08:09:51;4.93;;;3.50;;
22234;SDS011;11286;45.596;5.284;2023-03-23T08:12:17;6.28;;;3.80;;
22234;SDS011;11286;45.596;5.284;2023-03-23T08:14:43;5.03;;;3.67;;
22234;SDS011;11286;45.596;5.284;2023-03-23T08:17:08;4.82;;;3.50;;
22234;SDS011;11286;45.596;5.284;2023-03-23T08:19:34;4.13;;;3.72;;
22234;SDS011;11286;45.596;5.284;2023-03-23T08:22:02;4.32;;;3.85;;
22234;SDS011;11286;45.596;5.284;2023-03-23T08:24:29;4.10;;;3.47;;
22234;SDS011;11286;45.596;5.284;2023-03-23T08:26:55;4.78;;;3.88;;
22234;SDS011;11286;45.596;5.284;2023-03-23T08:29:21;6.32;;;4.60;;
22234;SDS011;11286;45.596;5.284;2023-03-23T08:31:47;4.63;;;3.97;;
22234;SDS011;11286;45.596;5.284;2023-03-23T08:34:12;6.68;;;4.18;;
22234;SDS011;11286;45.596;5.284;2023-03-23T08:36:40;6.22;;;3.90;;
22234;SDS011;11286;45.596;5.284;2023-03-23T08:39:08;4.78;;;3.85;;
22234;SDS011;11286;45.596;5.284;2023-03-23T08:41:34;5.45;;;3.90;;
22234;SDS011;11286;45.596;5.284;2023-03-23T08:44:00;5.25;;;4.30;;
22234;SDS011;11286;45.596;5.284;2023-03-23T08:46:26;5.00;;;4.18;;
22234;SDS011;11286;45.596;5.284;2023-03-23T08:48:52;4.63;;;3.67;;
22234;SDS011;11286;45.596;5.284;2023-03-23T08:51:19;4.90;;;4.40;;
22234;SDS011;11286;45.596;5.284;2023-03-23T08:53:45;4.25;;;3.85;;
22234;SDS011;11286;45.596;5.284;2023-03-23T08:56:11;4.82;;;4.35;;
22234;SDS011;11286;45.596;5.284;2023-03-23T08:58:38;5.20;;;4.60;;
22234;SDS011;11286;45.596;5.284;2023-03-23T09:01:05;5.72;;;4.32;;
22234;SDS011;11286;45.596;5.284;2023-03-23T09:03:32;6.47;;;4.63;;
22234;SDS011;11286;45.596;5.284;2023-03-23T09:06:00;5.97;;;4.78;;
22234;SDS011;11286;45.596;5.284;2023-03-23T09:08:28;5.93;;;5.20;;
22234;SDS011;11286;45.596;5.284;2023-03-23T09:11:01;6.53;;;5.20;;
22234;SDS011;11286;45.596;5.284;2023-03-23T09:13:28;7.22;;;5.28;;
22234;SDS011;11286;45.596;5.284;2023-03-23T09:15:54;8.02;;;5.80;;
22234;SDS011;11286;45.596;5.284;2023-03-23T09:18:20;5.97;;;4.72;;
22234;SDS011;11286;45.596;5.284;2023-03-23T09:20:46;7.00;;;5.60;;
22234;SDS011;11286;45.596;5.284;2023-03-23T09:23:14;6.72;;;5.68;;
22234;SDS011;11286;45.596;5.284;2023-03-23T09:25:40;7.60;;;5.75;;
22234;SDS011;11286;45.596;5.284;2023-03-23T09:28:06;8.80;;;5.95;;
22234;SDS011;11286;45.596;5.284;2023-03-23T09:30:33;8.07;;;6.60;;
22234;SDS011;11286;45.596;5.284;2023-03-23T09:33:01;11.85;;;7.22;;
22234;SDS011;11286;45.596;5.284;2023-03-23T09:35:28;10.02;;;7.22;;
22234;SDS011;11286;45.596;5.284;2023-03-23T09:37:56;8.50;;;6.85;;
22234;SDS011;11286;45.596;5.284;2023-03-23T09:51:21;11.68;;;8.10;;
22234;SDS011;11286;45.596;5.284;2023-03-23T09:53:53;9.57;;;7.88;;
22234;SDS011;11286;45.596;5.284;2023-03-23T09:56:29;9.63;;;7.90;;
22234;SDS011;11286;45.596;5.284;2023-03-23T09:59:07;9.50;;;7.88;;
22234;SDS011;11286;45.596;5.284;2023-03-23T10:01:50;10.02;;;7.40;;
22234;SDS011;11286;45.596;5.284;2023-03-23T10:04:35;8.65;;;7.60;;
22234;SDS011;11286;45.596;5.284;2023-03-23T10:07:13;8.93;;;7.30;;
22234;SDS011;11286;45.596;5.284;2023-03-23T10:09:39;9.20;;;7.50;;
22234;SDS011;11286;45.596;5.284;2023-03-23T10:17:50;13.77;;;7.90;;
22234;SDS011;11286;45.596;5.284;2023-03-23T10:26:04;10.00;;;7.63;;
22234;SDS011;11286;45.596;5.284;2023-03-23T10:31:04;9.27;;;7.15;;
22234;SDS011;11286;45.596;5.284;2023-03-23T10:33:36;9.57;;;7.53;;
22234;SDS011;11286;45.596;5.284;2023-03-23T10:36:24;8.18;;;6.75;;
22234;SDS011;11286;45.596;5.284;2023-03-23T10:38:58;8.35;;;7.53;;
22234;SDS011;11286;45.596;5.284;2023-03-23T10:41:28;8.20;;;6.93;;
22234;SDS011;11286;45.596;5.284;2023-03-23T10:43:55;7.65;;;6.55;;
22234;SDS011;11286;45.596;5.284;2023-03-23T10:46:37;7.68;;;6.70;;
22234;SDS011;11286;45.596;5.284;2023-03-23T10:49:12;5.90;;;5.00;;
22234;SDS011;11286;45.596;5.284;2023-03-23T10:51:42;9.60;;;6.22;;
22234;SDS011;11286;45.596;5.284;2023-03-23T10:54:11;11.07;;;6.20;;
22234;SDS011;11286;45.596;5.284;2023-03-23T10:56:38;7.20;;;6.28;;
22234;SDS011;11286;45.596;5.284;2023-03-23T10:59:12;6.53;;;5.90;;
22234;SDS011;11286;45.596;5.284;2023-03-23T11:01:47;9.02;;;6.88;;
22234;SDS011;11286;45.596;5.284;2023-03-23T11:04:16;8.30;;;7.10;;
22234;SDS011;11286;45.596;5.284;2023-03-23T11:06:45;7.50;;;6.75;;
22234;SDS011;11286;45.596;5.284;2023-03-23T11:09:14;10.40;;;7.10;;
22234;SDS011;11286;45.596;5.284;2023-03-23T11:11:43;10.25;;;7.25;;
22234;SDS011;11286;45.596;5.284;2023-03-23T11:14:29;11.00;;;8.23;;
22234;SDS011;11286;45.596;5.284;2023-03-23T11:16:59;9.10;;;8.10;;
22234;SDS011;11286;45.596;5.284;2023-03-23T11:19:30;8.93;;;8.02;;
22234;SDS011;11286;45.596;5.284;2023-03-23T11:24:41;10.05;;;8.18;;
22234;SDS011;11286;45.596;5.284;2023-03-23T11:27:10;11.52;;;8.35;;
22234;SDS011;11286;45.596;5.284;2023-03-23T11:29:47;8.93;;;7.60;;
22234;SDS011;11286;45.596;5.284;2023-03-23T11:32:34;9.05;;;7.47;;
22234;SDS011;11286;45.596;5.284;2023-03-23T11:35:02;11.57;;;8.07;;
22234;SDS011;11286;45.596;5.284;2023-03-23T11:37:41;9.48;;;7.30;;
22234;SDS011;11286;45.596;5.284;2023-03-23T11:42:47;9.55;;;7.80;;
22234;SDS011;11286;45.596;5.284;2023-03-23T11:53:13;9.07;;;6.80;;
22234;SDS011;11286;45.596;5.284;2023-03-23T11:58:16;9.38;;;7.50;;
22234;SDS011;11286;45.596;5.284;2023-03-23T12:00:51;9.32;;;7.63;;
22234;SDS011;11286;45.596;5.284;2023-03-23T12:06:44;10.95;;;7.10;;
22234;SDS011;11286;45.596;5.284;2023-03-23T12:09:43;7.75;;;6.95;;
22234;SDS011;11286;45.596;5.284;2023-03-23T12:12:29;9.48;;;6.85;;
22234;SDS011;11286;45.596;5.284;2023-03-23T12:23:43;8.55;;;7.22;;
22234;SDS011;11286;45.596;5.284;2023-03-23T12:29:34;8.23;;;7.18;;
22234;SDS011;11286;45.596;5.284;2023-03-23T12:48:39;9.95;;;8.77;;
22234;SDS011;11286;45.596;5.284;2023-03-23T12:51:22;12.13;;;8.13;;
22234;SDS011;11286;45.596;5.284;2023-03-23T13:01:48;11.95;;;9.82;;
22234;SDS011;11286;45.596;5.284;2023-03-23T13:04:35;13.05;;;10.13;;
22234;SDS011;11286;45.596;5.284;2023-03-23T13:07:05;10.85;;;9.15;;
22234;SDS011;11286;45.596;5.284;2023-03-23T13:09:52;10.80;;;9.70;;
22234;SDS011;11286;45.596;5.284;2023-03-23T13:12:44;12.05;;;9.70;;
22234;SDS011;11286;45.596;5.284;2023-03-23T13:15:26;12.80;;;9.88;;
22234;SDS011;11286;45.596;5.284;2023-03-23T13:23:38;11.82;;;10.40;;
22234;SDS011;11286;45.596;5.284;2023-03-23T13:26:28;10.77;;;9.68;;
22234;SDS011;11286;45.596;5.284;2023-03-23T13:31:29;13.13;;;10.27;;
22234;SDS011;11286;45.596;5.284;2023-03-23T13:34:02;11.20;;;10.10;;
22234;SDS011;11286;45.596;5.284;2023-03-23T13:39:02;14.98;;;11.40;;
22234;SDS011;11286;45.596;5.284;2023-03-23T13:41:32;13.18;;;10.82;;
22234;SDS011;11286;45.596;5.284;2023-03-23T13:44:15;14.90;;;12.32;;
22234;SDS011;11286;45.596;5.284;2023-03-23T13:46:53;14.50;;;11.10;;
22234;SDS011;11286;45.596;5.284;2023-03-23T13:49:46;13.15;;;11.68;;
22234;SDS011;11286;45.596;5.284;2023-03-23T13:52:18;13.32;;;10.70;;
22234;SDS011;11286;45.596;5.284;2023-03-23T13:54:46;13.45;;;10.68;;
22234;SDS011;11286;45.596;5.284;2023-03-23T13:57:20;14.05;;;11.25;;
22234;SDS011;11286;45.596;5.284;2023-03-23T14:00:27;13.35;;;11.00;;
22234;SDS011;11286;45.596;5.284;2023-03-23T14:02:50;11.85;;;10.63;;
22234;SDS011;11286;45.596;5.284;2023-03-23T14:07:52;14.20;;;10.85;;
22234;SDS011;11286;45.596;5.284;2023-03-23T14:10:25;13.30;;;9.93;;
22234;SDS011;11286;45.596;5.284;2023-03-23T14:13:11;12.07;;;10.30;;
22234;SDS011;11286;45.596;5.284;2023-03-23T14:15:55;11.65;;;10.38;;
22234;SDS011;11286;45.596;5.284;2023-03-23T14:18:21;11.65;;;10.45;;
22234;SDS011;11286;45.596;5.284;2023-03-23T14:20:48;12.77;;;10.20;;
22234;SDS011;11286;45.596;5.284;2023-03-23T14:23:15;12.07;;;9.40;;
22234;SDS011;11286;45.596;5.284;2023-03-23T14:25:42;11.95;;;10.13;;
22234;SDS011;11286;45.596;5.284;2023-03-23T14:28:20;12.23;;;10.30;;
22234;SDS011;11286;45.596;5.284;2023-03-23T14:30:51;13.02;;;11.68;;
22234;SDS011;11286;45.596;5.284;2023-03-23T14:33:18;10.95;;;8.75;;
22234;SDS011;11286;45.596;5.284;2023-03-23T14:35:45;11.98;;;9.50;;
22234;SDS011;11286;45.596;5.284;2023-03-23T14:38:18;10.95;;;9.85;;
22234;SDS011;11286;45.596;5.284;2023-03-23T14:40:49;11.18;;;9.35;;
22234;SDS011;11286;45.596;5.284;2023-03-23T14:43:16;13.18;;;9.70;;
22234;SDS011;11286;45.596;5.284;2023-03-23T14:45:46;11.00;;;9.48;;
22234;SDS011;11286;45.596;5.284;2023-03-23T14:48:20;11.25;;;9.80;;
22234;SDS011;11286;45.596;5.284;2023-03-23T14:50:56;11.20;;;9.88;;
22234;SDS011;11286;45.596;5.284;2023-03-23T14:53:24;13.40;;;9.48;;
22234;SDS011;11286;45.596;5.284;2023-03-23T14:55:54;11.57;;;9.15;;
22234;SDS011;11286;45.596;5.284;2023-03-23T14:58:22;13.10;;;9.20;;
22234;SDS011;11286;45.596;5.284;2023-03-23T15:00:54;10.27;;;9.07;;
22234;SDS011;11286;45.596;5.284;2023-03-23T15:03:24;12.45;;;9.23;;
22234;SDS011;11286;45.596;5.284;2023-03-23T15:05:52;12.15;;;9.07;;
22234;SDS011;11286;45.596;5.284;2023-03-23T15:08:27;11.57;;;8.60;;
22234;SDS011;11286;45.596;5.284;2023-03-23T15:13:52;9.80;;;8.80;;
22234;SDS011;11286;45.596;5.284;2023-03-23T15:16:24;11.48;;;8.40;;
22234;SDS011;11286;45.596;5.284;2023-03-23T15:19:34;10.68;;;8.05;;
22234;SDS011;11286;45.596;5.284;2023-03-23T15:24:26;9.77;;;8.57;;
22234;SDS011;11286;45.596;5.284;2023-03-23T15:27:02;11.85;;;7.93;;
22234;SDS011;11286;45.596;5.284;2023-03-23T15:30:15;10.63;;;8.05;;
22234;SDS011;11286;45.596;5.284;2023-03-23T15:32:53;10.05;;;7.60;;
22234;SDS011;11286;45.596;5.284;2023-03-23T15:35:24;9.50;;;7.78;;
22234;SDS011;11286;45.596;5.284;2023-03-23T15:38:00;12.63;;;8.68;;
22234;SDS011;11286;45.596;5.284;2023-03-23T15:40:32;9.85;;;7.78;;
22234;SDS011;11286;45.596;5.284;2023-03-23T15:43:16;8.63;;;7.45;;
22234;SDS011;11286;45.596;5.284;2023-03-23T15:45:59;9.23;;;7.63;;
22234;SDS011;11286;45.596;5.284;2023-03-23T15:51:13;8.80;;;7.82;;
22234;SDS011;11286;45.596;5.284;2023-03-23T15:53:40;10.20;;;8.07;;
22234;SDS011;11286;45.596;5.284;2023-03-23T15:56:06;10.30;;;8.35;;
22234;SDS011;11286;45.596;5.284;2023-03-23T15:58:35;9.32;;;8.30;;
22234;SDS011;11286;45.596;5.284;2023-03-23T16:01:20;10.13;;;8.57;;
22234;SDS011;11286;45.596;5.284;2023-03-23T16:03:54;8.65;;;7.53;;
22234;SDS011;11286;45.596;5.284;2023-03-23T16:06:40;9.80;;;8.00;;
22234;SDS011;11286;45.596;5.284;2023-03-23T16:09:06;10.20;;;7.82;;
22234;SDS011;11286;45.596;5.284;2023-03-23T16:11:36;14.10;;;8.07;;
22234;SDS011;11286;45.596;5.284;2023-03-23T16:14:02;10.98;;;8.45;;
22234;SDS011;11286;45.596;5.284;2023-03-23T16:16:32;10.15;;;8.57;;
22234;SDS011;11286;45.596;5.284;2023-03-23T16:19:01;9.57;;;8.00;;
22234;SDS011;11286;45.596;5.284;2023-03-23T16:21:27;9.45;;;7.63;;
22234;SDS011;11286;45.596;5.284;2023-03-23T16:23:53;12.68;;;8.45;;
22234;SDS011;11286;45.596;5.284;2023-03-23T16:26:18;13.05;;;9.05;;
22234;SDS011;11286;45.596;5.284;2023-03-23T16:28:44;10.20;;;8.30;;
22234;SDS011;11286;45.596;5.284;2023-03-23T16:31:10;9.98;;;8.80;;
22234;SDS011;11286;45.596;5.284;2023-03-23T16:33:36;10.50;;;8.10;;
22234;SDS011;11286;45.596;5.284;2023-03-23T16:36:02;9.57;;;8.20;;
22234;SDS011;11286;45.596;5.284;2023-03-23T16:38:27;11.02;;;8.45;;
22234;SDS011;11286;45.596;5.284;2023-03-23T16:40:53;10.63;;;8.18;;
22234;SDS011;11286;45.596;5.284;2023-03-23T16:43:19;8.90;;;8.10;;
22234;SDS011;11286;45.596;5.284;2023-03-23T16:45:46;11.93;;;9.27;;
22234;SDS011;11286;45.596;5.284;2023-03-23T16:48:12;9.43;;;8.43;;
22234;SDS011;11286;45.596;5.284;2023-03-23T16:50:40;11.55;;;8.27;;
22234;SDS011;11286;45.596;5.284;2023-03-23T16:53:07;10.85;;;9.10;;
22234;SDS011;11286;45.596;5.284;2023-03-23T16:55:34;10.52;;;8.38;;